createdAt,value
2019-03-04T00:01:26.101Z,71.21
2019-03-04T00:03:55.629Z,71.11
2019-03-04T00:06:25.682Z,71.18
2019-03-04T00:08:57.682Z,71.65
2019-03-04T00:11:26.906Z,70.99
2019-03-04T00:13:56.423Z,70.49
2019-03-04T00:16:29.445Z,69.64
2019-03-04T00:18:59.778Z,69.51
2019-03-04T00:21:30.736Z,70.26
2019-03-04T00:24:00.553Z,70.60
2019-03-04T00:26:34.318Z,69.83
2019-03-04T00:29:08.021Z,69.79
2019-03-04T00:31:37.778Z,69.95
2019-03-04T00:34:12.377Z,70.16
2019-03-04T00:36:44.735Z,70.63
2019-03-04T00:39:17.353Z,70.47
2019-03-04T00:41:49.628Z,69.04
2019-03-04T00:44:18.881Z,69.10
2019-03-04T00:46:51.959Z,69.54
2019-03-04T00:49:20.951Z,68.79
2019-03-04T00:51:51.535Z,68.63
2019-03-04T00:54:22.850Z,68.62
2019-03-04T00:57:01.314Z,69.06
2019-03-04T00:59:31.614Z,70.27
2019-03-04T01:02:02.237Z,69.71
2019-03-04T01:04:34.649Z,70.87
2019-03-04T01:07:07.582Z,70.90
2019-03-04T01:09:37.815Z,71.50
2019-03-04T01:12:07.664Z,72.76
2019-03-04T01:14:36.981Z,73.15
2019-03-04T01:17:08.424Z,74.34
2019-03-04T01:19:37.432Z,74.37
2019-03-04T01:22:06.763Z,75.14
2019-03-04T01:24:36.418Z,74.63
2019-03-04T01:27:08.610Z,75.03
2019-03-04T01:29:39.276Z,75.09
2019-03-04T01:32:08.235Z,76.47
2019-03-04T01:34:37.425Z,75.43
2019-03-04T01:37:08.359Z,76.16
2019-03-04T01:39:39.039Z,76.81
2019-03-04T01:42:08.294Z,76.80
2019-03-04T01:44:38.450Z,78.68
2019-03-04T01:47:08.481Z,79.54
2019-03-04T01:49:37.419Z,79.95
2019-03-04T01:52:11.930Z,80.12
2019-03-04T01:54:41.239Z,80.56
2019-03-04T01:57:11.187Z,81.02
2019-03-04T01:59:42.179Z,81.51
2019-03-04T02:02:12.045Z,83.13
2019-03-04T02:04:41.041Z,83.75
2019-03-04T02:07:11.890Z,84.03
2019-03-04T02:09:40.863Z,83.02
2019-03-04T02:12:09.830Z,83.37
2019-03-04T02:14:41.077Z,83.39
2019-03-04T02:17:12.085Z,83.52
2019-03-04T02:19:42.143Z,83.78
2019-03-04T02:22:14.951Z,83.79
2019-03-04T02:24:44.143Z,83.41
2019-03-04T02:27:18.614Z,84.45
2019-03-04T02:29:47.611Z,86.40
2019-03-04T02:32:34.431Z,86.36
2019-03-04T02:35:03.424Z,85.22
2019-03-04T02:37:35.201Z,86.89
2019-03-04T02:40:06.255Z,87.17
2019-03-04T02:42:35.927Z,88.06
2019-03-04T02:45:07.452Z,87.26
2019-03-04T02:47:41.472Z,87.28
2019-03-04T02:50:11.077Z,87.12
2019-03-04T02:52:41.578Z,87.13
2019-03-04T02:55:11.603Z,87.20
2019-03-04T02:57:42.315Z,87.80
2019-03-04T03:00:12.914Z,87.52
2019-03-04T03:02:43.086Z,86.88
2019-03-04T03:05:12.089Z,87.53
2019-03-04T03:07:43.699Z,88.39
2019-03-04T03:10:12.697Z,89.99
2019-03-04T03:12:41.939Z,91.00
2019-03-04T03:15:12.279Z,86.00
2019-03-04T03:17:42.281Z,83.77
2019-03-04T03:20:14.035Z,82.71
2019-03-04T03:22:43.802Z,82.46
2019-03-04T03:25:15.557Z,81.77
2019-03-04T03:27:46.952Z,83.08
2019-03-04T03:30:15.929Z,83.45
2019-03-04T03:32:45.127Z,83.04
2019-03-04T03:35:14.139Z,84.37
2019-03-04T03:37:43.108Z,85.15
2019-03-04T03:40:13.503Z,85.33
2019-03-04T03:42:43.220Z,85.11
2019-03-04T03:45:14.261Z,85.48
2019-03-04T03:47:48.010Z,85.38
2019-03-04T03:50:21.202Z,85.82
2019-03-04T03:52:50.189Z,86.63
2019-03-04T03:55:19.181Z,86.27
2019-03-04T03:57:49.150Z,86.00
2019-03-04T04:00:18.283Z,86.16
2019-03-04T04:02:48.124Z,86.46
2019-03-04T04:05:17.168Z,86.03
2019-03-04T04:07:46.121Z,86.25
2019-03-04T04:10:17.126Z,86.49
2019-03-04T04:12:46.086Z,87.10
2019-03-04T04:15:15.378Z,87.22
2019-03-04T04:17:47.162Z,87.78
2019-03-04T04:20:16.660Z,87.47
2019-03-04T04:22:47.106Z,86.07
2019-03-04T04:25:37.530Z,86.24
2019-03-04T04:28:12.559Z,85.57
2019-03-04T04:30:44.362Z,85.90
2019-03-04T04:33:14.393Z,85.42
2019-03-04T04:35:45.776Z,84.75
2019-03-04T04:38:16.390Z,85.75
2019-03-04T04:40:46.567Z,83.54
2019-03-04T04:43:17.071Z,83.93
2019-03-04T04:45:50.444Z,82.78
2019-03-04T04:48:22.833Z,83.38
2019-03-04T04:50:52.064Z,81.82
2019-03-04T04:53:22.503Z,79.07
2019-03-04T04:55:51.553Z,79.04
2019-03-04T04:58:22.872Z,77.52
2019-03-04T05:00:53.261Z,77.22
2019-03-04T05:03:25.305Z,76.49
2019-03-04T05:05:54.585Z,76.38
2019-03-04T05:08:25.029Z,76.15
2019-03-04T05:10:54.832Z,75.95
2019-03-04T05:13:24.948Z,76.08
2019-03-04T05:15:54.130Z,74.87
2019-03-04T05:18:32.228Z,75.69
2019-03-04T05:21:04.609Z,74.74
2019-03-04T05:26:24.893Z,75.17
2019-03-04T05:28:56.368Z,75.89
2019-03-04T05:31:29.909Z,75.41
2019-03-04T05:33:59.852Z,74.67
2019-03-04T05:36:29.089Z,74.49
2019-03-04T05:39:01.536Z,74.96
2019-03-04T05:41:31.350Z,74.88
2019-03-04T05:44:00.796Z,75.55
2019-03-04T05:46:30.068Z,76.16
2019-03-04T05:49:03.960Z,76.85
2019-03-04T05:51:33.283Z,77.08
2019-03-04T05:54:04.584Z,78.04
2019-03-04T05:56:33.562Z,78.36
2019-03-04T05:59:04.214Z,78.31
2019-03-04T06:01:35.047Z,78.66
2019-03-04T06:04:06.917Z,80.58
2019-03-04T06:07:00.661Z,80.23
2019-03-04T06:09:31.204Z,80.69
2019-03-04T06:12:01.203Z,79.78
2019-03-04T06:14:38.691Z,80.34
2019-03-04T06:17:07.953Z,79.69
2019-03-04T06:19:49.658Z,78.94
2019-03-04T06:22:18.648Z,77.96
2019-03-04T06:24:49.949Z,78.10
2019-03-04T06:27:18.763Z,77.39
2019-03-04T06:29:48.395Z,76.92
2019-03-04T06:32:19.718Z,76.93
2019-03-04T06:34:49.003Z,75.97
2019-03-04T06:37:19.377Z,75.11
2019-03-04T06:39:58.421Z,75.27
2019-03-04T06:42:27.417Z,75.74
2019-03-04T06:44:58.676Z,75.08
2019-03-04T06:47:30.016Z,75.25
2019-03-04T06:49:59.785Z,74.61
2019-03-04T06:52:29.428Z,74.13
2019-03-04T06:55:31.135Z,72.57
2019-03-04T06:58:00.916Z,72.29
2019-03-04T07:01:09.079Z,70.43
2019-03-04T07:03:45.492Z,71.30
2019-03-04T07:06:19.681Z,71.50
2019-03-04T07:09:14.827Z,69.27
2019-03-04T07:11:45.394Z,69.42
2019-03-04T07:14:14.763Z,67.20
2019-03-04T07:16:47.139Z,67.45
2019-03-04T07:19:23.228Z,66.35
2019-03-04T07:21:54.278Z,65.99
2019-03-04T07:24:24.852Z,65.61
2019-03-04T07:26:54.148Z,65.80
2019-03-04T07:29:23.283Z,65.92
2019-03-04T07:31:53.317Z,65.50
2019-03-04T07:34:22.767Z,65.56
2019-03-04T07:36:52.829Z,64.72
2019-03-04T07:39:24.597Z,64.35
2019-03-04T07:41:56.527Z,65.04
2019-03-04T07:44:25.934Z,64.93
2019-03-04T07:49:32.907Z,64.19
2019-03-04T07:52:02.944Z,63.40
2019-03-04T07:54:33.832Z,62.56
2019-03-04T07:57:02.814Z,63.53
2019-03-04T07:59:33.209Z,61.98
2019-03-04T08:02:05.542Z,62.99
2019-03-04T08:04:35.079Z,64.83
2019-03-04T08:07:39.698Z,72.88
2019-03-04T08:11:01.341Z,84.95
2019-03-04T08:13:42.831Z,86.36
2019-03-04T08:16:12.023Z,86.33
2019-03-04T08:18:55.017Z,84.46
2019-03-04T08:21:24.048Z,83.82
2019-03-04T08:23:55.396Z,84.57
2019-03-04T08:26:25.928Z,84.31
2019-03-04T08:28:56.361Z,84.71
2019-03-04T08:31:29.243Z,85.51
2019-03-04T08:33:59.254Z,82.54
2019-03-04T08:36:29.213Z,81.62
2019-03-04T08:39:00.807Z,80.67
2019-03-04T08:41:30.949Z,78.94
2019-03-04T08:44:00.273Z,77.93
2019-03-04T08:46:33.523Z,76.77
2019-03-04T08:49:11.947Z,78.95
2019-03-04T08:51:42.951Z,78.34
2019-03-04T08:54:11.923Z,79.51
2019-03-04T08:56:43.165Z,79.05
2019-03-04T08:59:13.043Z,80.43
2019-03-04T09:01:44.870Z,81.54
2019-03-04T09:04:23.611Z,83.33
2019-03-04T09:06:52.555Z,83.24
2019-03-04T09:09:23.900Z,83.01
2019-03-04T09:11:55.352Z,84.19
2019-03-04T09:14:26.951Z,85.30
2019-03-04T09:16:57.964Z,84.90
2019-03-04T09:19:29.081Z,85.65
2019-03-04T09:22:00.662Z,85.36
2019-03-04T09:24:30.617Z,83.98
2019-03-04T09:26:59.588Z,82.84
2019-03-04T09:29:30.407Z,81.48
2019-03-04T09:32:00.110Z,80.99
2019-03-04T09:34:29.365Z,80.18
2019-03-04T09:36:59.372Z,76.55
2019-03-04T09:39:30.650Z,74.45
2019-03-04T09:42:11.087Z,71.11
2019-03-04T09:44:41.140Z,68.17
2019-03-04T09:47:12.909Z,68.11
2019-03-04T09:49:41.871Z,67.05
2019-03-04T09:52:12.344Z,67.22
2019-03-04T09:54:41.364Z,65.73
2019-03-04T09:57:10.305Z,66.67
2019-03-04T09:59:39.295Z,65.44
2019-03-04T10:02:15.293Z,65.05
2019-03-04T10:05:16.065Z,62.92
2019-03-04T10:08:19.531Z,63.71
2019-03-04T10:10:56.270Z,61.68
2019-03-04T10:13:54.496Z,59.87
2019-03-04T10:16:44.411Z,59.12
2019-03-04T10:19:57.769Z,58.27
2019-03-04T10:22:48.423Z,58.96
2019-03-04T10:25:58.476Z,58.18
2019-03-04T10:28:52.758Z,58.35
2019-03-04T10:32:06.945Z,56.60
2019-03-04T10:35:09.264Z,57.43
2019-03-04T10:38:22.801Z,58.88
2019-03-04T10:40:59.510Z,58.49
2019-03-04T10:44:13.093Z,62.44
2019-03-04T10:47:01.547Z,64.08
2019-03-04T10:49:35.508Z,64.97
2019-03-04T10:52:08.064Z,63.80
2019-03-04T10:54:41.300Z,63.00
2019-03-04T10:57:12.123Z,61.53
2019-03-04T10:59:42.475Z,61.83
2019-03-04T11:02:16.150Z,59.11
2019-03-04T11:04:46.542Z,59.51
2019-03-04T11:07:20.502Z,59.46
2019-03-04T11:09:51.865Z,60.37
2019-03-04T11:12:22.756Z,60.21
2019-03-04T11:14:53.701Z,63.01
2019-03-04T11:17:24.849Z,67.26
2019-03-04T11:19:55.597Z,71.20
2019-03-04T11:22:30.315Z,77.33
2019-03-04T11:24:59.618Z,80.93
2019-03-04T11:27:31.481Z,82.37
2019-03-04T11:30:00.458Z,83.34
2019-03-04T11:32:30.186Z,84.55
2019-03-04T11:35:01.532Z,83.86
2019-03-04T11:37:32.256Z,80.40
2019-03-04T11:40:09.907Z,78.25
2019-03-04T11:42:41.748Z,75.96
2019-03-04T11:45:13.637Z,75.98
2019-03-04T11:47:44.835Z,73.99
2019-03-04T11:50:24.608Z,75.04
2019-03-04T11:52:55.051Z,73.18
2019-03-04T11:55:32.019Z,70.01
2019-03-04T11:58:05.016Z,71.37
2019-03-04T12:00:38.621Z,70.96
2019-03-04T12:03:07.922Z,71.30
2019-03-04T12:05:44.038Z,73.07
2019-03-04T12:08:16.118Z,72.47
2019-03-04T12:10:45.886Z,73.96
2019-03-04T12:13:16.296Z,80.05
2019-03-04T12:15:45.243Z,83.15
2019-03-04T12:18:17.057Z,82.40
2019-03-04T12:20:51.270Z,81.30
2019-03-04T12:23:20.502Z,82.59
2019-03-04T12:25:50.408Z,83.07
2019-03-04T12:28:21.524Z,82.09
2019-03-04T12:30:51.478Z,81.66
2019-03-04T12:33:41.073Z,82.30
2019-03-04T12:36:11.246Z,81.26
2019-03-04T12:38:43.634Z,82.87
2019-03-04T12:41:13.706Z,79.84
2019-03-04T12:43:46.045Z,78.86
2019-03-04T12:46:17.800Z,80.54
2019-03-04T12:48:51.749Z,81.38
2019-03-04T12:51:23.467Z,81.94
2019-03-04T12:53:53.242Z,82.77
2019-03-04T12:56:29.387Z,83.89
2019-03-04T12:59:00.806Z,83.81
2019-03-04T13:01:34.126Z,84.27
2019-03-04T13:04:04.751Z,86.05
2019-03-04T13:06:34.014Z,85.36
2019-03-04T13:09:14.082Z,86.42
2019-03-04T13:11:41.750Z,86.20
2019-03-04T13:14:13.259Z,83.73
2019-03-04T13:16:43.396Z,82.42
2019-03-04T13:19:14.055Z,82.27
2019-03-04T13:21:44.737Z,82.56
2019-03-04T13:24:14.482Z,80.85
2019-03-04T13:26:43.427Z,81.35
2019-03-04T13:29:13.189Z,81.08
2019-03-04T13:31:42.228Z,78.19
2019-03-04T13:34:13.278Z,79.24
2019-03-04T13:36:43.549Z,76.77
2019-03-04T13:39:13.949Z,76.52
2019-03-04T13:41:45.929Z,75.23
2019-03-04T13:44:16.364Z,74.61
2019-03-04T13:46:45.431Z,73.95
2019-03-04T13:49:15.818Z,73.46
2019-03-04T13:51:47.611Z,75.66
2019-03-04T13:54:16.870Z,78.08
2019-03-04T13:56:48.086Z,76.45
2019-03-04T13:59:20.569Z,76.29
2019-03-04T14:01:51.642Z,76.82
2019-03-04T14:04:23.062Z,76.28
2019-03-04T14:06:53.626Z,76.64
2019-03-04T14:09:26.344Z,75.57
2019-03-04T14:12:15.573Z,76.84
2019-03-04T14:14:44.557Z,76.94
2019-03-04T14:17:13.862Z,78.85
2019-03-04T14:19:49.617Z,77.87
2019-03-04T14:22:19.096Z,77.29
2019-03-04T14:24:48.296Z,77.71
2019-03-04T14:27:18.063Z,76.86
2019-03-04T14:29:50.714Z,77.46
2019-03-04T14:32:22.308Z,77.75
2019-03-04T14:34:52.877Z,78.58
2019-03-04T14:37:22.632Z,81.43
2019-03-04T14:39:55.270Z,88.43
2019-03-04T14:42:25.005Z,90.38
2019-03-04T14:44:57.118Z,89.98
2019-03-04T14:47:26.310Z,91.18
2019-03-04T14:49:55.509Z,90.78
2019-03-04T14:52:25.690Z,91.03
2019-03-04T14:54:54.731Z,89.94
2019-03-04T14:57:23.837Z,89.35
2019-03-04T14:59:54.328Z,89.35
2019-03-04T15:02:28.120Z,89.48
2019-03-04T15:05:00.303Z,89.44
2019-03-04T15:07:32.477Z,89.74
2019-03-04T15:10:02.422Z,88.72
2019-03-04T15:12:33.492Z,89.31
2019-03-04T15:15:02.479Z,89.33
2019-03-04T15:17:35.151Z,89.21
2019-03-04T15:20:09.324Z,89.01
2019-03-04T15:22:35.650Z,89.81
2019-03-04T15:25:05.578Z,89.48
2019-03-04T15:27:35.608Z,88.43
2019-03-04T15:30:06.297Z,87.37
2019-03-04T15:32:47.074Z,86.90
2019-03-04T15:35:16.259Z,87.22
2019-03-04T15:37:52.099Z,86.85
2019-03-04T15:40:21.844Z,86.65
2019-03-04T15:42:52.421Z,86.49
2019-03-04T15:45:21.627Z,86.64
2019-03-04T15:47:51.806Z,87.16
2019-03-04T15:50:23.868Z,85.94
2019-03-04T15:52:56.477Z,86.71
2019-03-04T15:55:26.425Z,85.89
2019-03-04T15:57:58.256Z,84.35
2019-03-04T16:00:29.900Z,86.50
2019-03-04T16:02:59.432Z,85.65
2019-03-04T16:05:28.422Z,85.34
2019-03-04T16:08:07.529Z,83.52
2019-03-04T16:10:36.709Z,83.47
2019-03-04T16:13:06.050Z,83.28
2019-03-04T16:15:36.552Z,82.43
2019-03-04T16:18:11.061Z,83.57
2019-03-04T16:20:41.731Z,83.34
2019-03-04T16:23:12.150Z,83.42
2019-03-04T16:25:41.127Z,83.42
2019-03-04T16:28:20.032Z,82.77
2019-03-04T16:30:51.362Z,83.68
2019-03-04T16:33:21.947Z,82.94
2019-03-04T16:35:51.441Z,83.51
2019-03-04T16:38:31.740Z,83.58
2019-03-04T16:41:01.009Z,84.72
2019-03-04T16:43:30.222Z,85.45
2019-03-04T16:46:03.144Z,84.46
2019-03-04T16:48:34.769Z,84.77
2019-03-04T16:51:03.741Z,84.49
2019-03-04T16:53:34.835Z,84.27
2019-03-04T16:56:06.348Z,85.09
2019-03-04T16:58:40.394Z,84.23
2019-03-04T17:01:13.121Z,84.40
2019-03-04T17:03:46.875Z,84.31
2019-03-04T17:06:17.435Z,83.78
2019-03-04T17:08:52.261Z,83.91
2019-03-04T17:11:23.099Z,84.31
2019-03-04T17:13:52.523Z,83.87
2019-03-04T17:16:21.938Z,83.80
2019-03-04T17:18:54.777Z,82.98
2019-03-04T17:21:26.098Z,83.00
2019-03-04T17:23:57.124Z,82.95
2019-03-04T17:26:29.092Z,84.54
2019-03-04T17:29:11.139Z,84.93
2019-03-04T17:31:42.453Z,85.66
2019-03-04T17:34:11.451Z,85.37
2019-03-04T17:36:43.858Z,84.96
2019-03-04T17:39:17.375Z,84.36
2019-03-04T17:41:46.384Z,85.25
2019-03-04T17:44:21.944Z,85.49
2019-03-04T17:46:53.925Z,85.88
2019-03-04T17:49:28.961Z,86.40
2019-03-04T17:51:59.254Z,85.67
2019-03-04T17:54:32.053Z,84.93
2019-03-04T17:57:01.297Z,85.51
2019-03-04T17:59:34.729Z,84.59
2019-03-04T18:02:04.010Z,84.96
2019-03-04T18:04:35.291Z,85.72
2019-03-04T18:07:06.089Z,85.60
2019-03-04T18:09:43.741Z,85.37
2019-03-04T18:12:14.135Z,85.76
2019-03-04T18:14:43.125Z,86.00
2019-03-04T18:17:17.370Z,85.51
2019-03-04T18:19:51.557Z,85.17
2019-03-04T18:22:23.618Z,85.92
2019-03-04T18:24:54.497Z,86.00
2019-03-04T18:27:39.162Z,86.11
2019-03-04T18:30:32.617Z,86.67
2019-03-04T18:33:40.545Z,86.46
2019-03-04T18:36:35.151Z,87.66
2019-03-04T18:39:32.491Z,87.20
2019-03-04T18:42:49.155Z,86.97
2019-03-04T18:45:54.668Z,87.36
2019-03-04T18:49:00.366Z,86.70
2019-03-04T18:51:34.256Z,85.67
2019-03-04T18:54:25.292Z,85.70
2019-03-04T18:56:58.772Z,85.94
2019-03-04T18:59:30.124Z,86.69
2019-03-04T19:02:01.898Z,86.68
2019-03-04T19:04:33.999Z,85.88
2019-03-04T19:07:19.381Z,85.17
2019-03-04T19:09:56.090Z,87.26
2019-03-04T19:12:29.315Z,88.73
2019-03-04T19:14:59.220Z,88.94
2019-03-04T19:17:33.718Z,88.79
2019-03-04T19:20:11.248Z,87.91
2019-03-04T19:22:44.150Z,87.39
2019-03-04T19:25:15.944Z,88.52
2019-03-04T19:27:47.143Z,88.29
2019-03-04T19:30:17.987Z,87.33
2019-03-04T19:32:49.058Z,87.48
2019-03-04T19:35:20.569Z,88.36
2019-03-04T19:37:52.611Z,88.12
2019-03-04T19:40:28.738Z,87.29
2019-03-04T19:43:05.474Z,87.61
2019-03-04T19:45:40.763Z,86.92
2019-03-04T19:48:25.306Z,86.78
2019-03-04T19:50:57.047Z,87.10
2019-03-04T19:53:28.934Z,86.73
2019-03-04T19:56:01.742Z,86.42
2019-03-04T19:58:36.578Z,86.40
2019-03-04T20:01:11.233Z,87.78
2019-03-04T20:03:40.323Z,86.04
2019-03-04T20:06:25.083Z,86.59
2019-03-04T20:08:58.259Z,87.55
2019-03-04T20:11:31.016Z,87.04
2019-03-04T20:14:05.159Z,87.64
2019-03-04T20:16:34.293Z,87.81
2019-03-04T20:19:16.248Z,87.20
2019-03-04T20:21:49.384Z,88.07
2019-03-04T20:24:21.915Z,87.66
2019-03-04T20:26:51.596Z,87.79
2019-03-04T20:29:26.727Z,88.22
2019-03-04T20:31:57.171Z,87.92
2019-03-04T20:34:31.050Z,87.31
2019-03-04T20:37:07.146Z,87.52
2019-03-04T20:39:44.402Z,87.47
2019-03-04T20:42:16.232Z,88.10
2019-03-04T20:44:48.234Z,88.85
2019-03-04T20:47:20.834Z,89.92
2019-03-04T20:49:58.619Z,89.90
2019-03-04T20:52:29.332Z,89.93
2019-03-04T20:55:03.179Z,90.24
2019-03-04T20:57:36.401Z,90.59
2019-03-04T21:00:11.692Z,90.22
2019-03-04T21:02:48.725Z,90.03
2019-03-04T21:05:25.818Z,91.12
2019-03-04T21:07:58.448Z,90.03
2019-03-04T21:10:38.580Z,90.25
2019-03-04T21:13:35.031Z,90.21
2019-03-04T21:16:19.296Z,89.58
2019-03-04T21:18:50.717Z,88.54
2019-03-04T21:21:23.784Z,87.48
2019-03-04T21:23:57.891Z,86.80
2019-03-04T21:26:38.033Z,86.38
2019-03-04T21:29:35.560Z,86.53
2019-03-04T21:32:42.065Z,86.56
2019-03-04T21:35:44.659Z,86.84
2019-03-04T21:38:13.611Z,87.58
2019-03-04T21:41:10.353Z,87.72
2019-03-04T21:43:46.419Z,87.43
2019-03-04T21:46:53.227Z,88.55
2019-03-04T21:49:25.366Z,89.99
2019-03-04T21:52:20.233Z,91.13
2019-03-04T21:54:47.031Z,93.08
2019-03-04T21:57:28.643Z,93.28
2019-03-04T21:59:59.406Z,93.24
2019-03-04T22:02:49.383Z,92.68
2019-03-04T22:05:18.712Z,92.24
2019-03-04T22:07:48.013Z,91.36
2019-03-04T22:10:17.813Z,92.05
2019-03-04T22:12:51.425Z,91.06
2019-03-04T22:15:22.181Z,90.78
2019-03-04T22:17:51.127Z,90.52
2019-03-04T22:20:22.200Z,89.81
2019-03-04T22:23:01.166Z,90.02
2019-03-04T22:25:32.271Z,90.47
2019-03-04T22:28:02.194Z,88.84
2019-03-04T22:30:31.317Z,88.40
2019-03-04T22:33:01.717Z,88.26
2019-03-04T22:35:30.696Z,87.63
2019-03-04T22:38:04.533Z,87.73
2019-03-04T22:40:35.814Z,87.52
2019-03-04T22:43:08.575Z,86.28
2019-03-04T22:45:48.521Z,85.42
2019-03-04T22:48:19.319Z,84.73
2019-03-04T22:50:51.952Z,83.67
2019-03-04T22:53:22.633Z,84.37
2019-03-04T22:55:52.658Z,83.41
2019-03-04T22:58:28.515Z,83.07
2019-03-04T23:01:36.101Z,82.19
2019-03-04T23:04:12.996Z,82.53
2019-03-04T23:06:48.358Z,82.66
2019-03-04T23:09:19.788Z,82.40
2019-03-04T23:12:00.821Z,82.02
2019-03-04T23:14:29.922Z,82.49
2019-03-04T23:17:00.125Z,83.87
2019-03-04T23:19:31.613Z,82.69
2019-03-04T23:22:04.440Z,83.83
2019-03-04T23:24:33.398Z,83.38
2019-03-04T23:27:02.691Z,83.10
2019-03-04T23:29:34.922Z,83.15
2019-03-04T23:32:05.490Z,82.98
2019-03-04T23:34:35.841Z,82.84
2019-03-04T23:37:05.814Z,83.44
2019-03-04T23:39:34.773Z,83.42
2019-03-04T23:42:06.598Z,84.02
2019-03-04T23:44:41.343Z,84.01
2019-03-04T23:47:11.336Z,84.31
2019-03-04T23:49:42.082Z,84.03
2019-03-04T23:52:13.370Z,84.70
2019-03-04T23:54:43.831Z,85.55
2019-03-04T23:57:17.621Z,85.02
2019-03-04T23:59:46.797Z,85.34
